createdAt,value
2023-04-26T00:05:18.922Z,25.7
2023-04-26T00:15:20.458Z,25.3
2023-04-26T00:25:21.710Z,27.8
2023-04-26T00:35:22.786Z,28.8
2023-04-26T00:45:23.675Z,25.2
2023-04-26T00:55:25.003Z,28.2
2023-04-26T01:05:25.056Z,25
2023-04-26T01:15:25.407Z,29.1
2023-04-26T01:25:26.082Z,25.4
2023-04-26T01:35:25.305Z,25.3
2023-04-26T01:45:24.892Z,25.1
2023-04-26T01:55:26.046Z,29
2023-04-26T02:05:26.380Z,25.3
2023-04-26T02:15:26.039Z,25.3
2023-04-26T02:25:26.201Z,28.4
2023-04-26T02:35:26.094Z,25.2
2023-04-26T02:45:26.521Z,25.1
2023-04-26T02:55:26.924Z,25.3
2023-04-26T03:05:09.237Z,25.5
2023-04-26T03:15:09.503Z,25.1
2023-04-26T03:25:09.176Z,25.3
2023-04-26T03:35:08.677Z,25.2
2023-04-26T03:45:09.243Z,25.6
2023-04-26T03:55:09.211Z,28.3
2023-04-26T04:05:13.966Z,31.5
2023-04-26T04:15:18.090Z,25.4
2023-04-26T04:25:20.472Z,25.8
2023-04-26T04:35:21.708Z,26.1
2023-04-26T04:45:30.610Z,30.5
2023-04-26T04:55:37.122Z,27.5
2023-04-26T05:05:42.424Z,37.1
2023-04-26T05:15:51.344Z,33.1
2023-04-26T05:26:02.136Z,34
2023-04-26T05:36:14.854Z,36.5
2023-04-26T05:46:29.141Z,37.2
2023-04-26T05:56:46.107Z,36.3
2023-04-26T06:07:00.739Z,41.6
2023-04-26T06:17:16.192Z,37.2
2023-04-26T06:27:28.987Z,33.6
2023-04-26T06:37:41.678Z,23.9
2023-04-26T06:47:57.537Z,37.1
2023-04-26T06:58:13.045Z,36.9
2023-04-26T07:08:30.128Z,38.2
2023-04-26T07:18:47.255Z,38.7
2023-04-26T07:29:04.733Z,38
2023-04-26T07:39:21.186Z,38.9
2023-04-26T07:49:40.075Z,39.2
2023-04-26T07:59:57.240Z,40.2
2023-04-26T08:10:17.280Z,40.3
2023-04-26T08:20:31.758Z,39.4
2023-04-26T08:30:44.432Z,38.9
2023-04-26T08:40:56.909Z,37.7
2023-04-26T08:51:09.232Z,38.4
2023-04-26T09:05:15.903Z,36.4
2023-04-26T09:15:28.339Z,38.3
2023-04-26T09:25:43.210Z,38.9
2023-04-26T09:35:53.007Z,38.3
2023-04-26T09:46:05.218Z,38.3
2023-04-26T09:56:19.063Z,29.2
2023-04-26T10:06:32.286Z,38.9
2023-04-26T10:16:46.461Z,38.4
2023-04-26T10:26:59.706Z,38.1
2023-04-26T10:37:12.865Z,37.6
2023-04-26T10:47:25.682Z,37.9
2023-04-26T10:57:38.554Z,37.9
2023-04-26T11:07:50.106Z,20.6
2023-04-26T11:18:01.981Z,37.8
2023-04-26T11:28:13.829Z,36.1
2023-04-26T11:38:23.288Z,34.6
2023-04-26T11:48:32.454Z,37.4
2023-04-26T11:58:44.671Z,37.9
2023-04-26T12:08:56.078Z,25.8
2023-04-26T12:19:04.260Z,34.4
2023-04-26T12:29:11.779Z,35.4
2023-04-26T12:39:19.313Z,35.2
2023-04-26T12:49:26.096Z,34.2
2023-04-26T12:59:35.180Z,34.6
2023-04-26T13:09:40.885Z,30.9
2023-04-26T13:19:45.272Z,22.3
2023-04-26T13:29:48.020Z,27.3
2023-04-26T13:39:49.609Z,26.3
2023-04-26T13:49:50.890Z,26.4
2023-04-26T13:59:53.371Z,26.1
2023-04-26T14:09:55.853Z,29.5
2023-04-26T14:19:58.027Z,26.3
2023-04-26T14:29:57.266Z,26.4
2023-04-26T14:39:58.945Z,26.4
2023-04-26T14:50:00.019Z,26.5
2023-04-26T15:05:06.747Z,26.4
2023-04-26T15:15:09.042Z,25.9
2023-04-26T15:25:09.036Z,25.9
2023-04-26T15:35:09.129Z,26.1
2023-04-26T15:45:09.353Z,25.9
2023-04-26T15:55:09.502Z,26
2023-04-26T16:05:11.287Z,29
2023-04-26T16:15:13.008Z,25.8
2023-04-26T16:25:15.830Z,25.8
2023-04-26T16:35:17.115Z,25.8
2023-04-26T16:45:18.849Z,26.4
2023-04-26T16:55:21.050Z,25.9
2023-04-26T17:05:21.659Z,25.8
2023-04-26T17:15:21.498Z,25.5
2023-04-26T17:25:21.459Z,25.9
2023-04-26T17:35:22.281Z,25.8
2023-04-26T17:45:22.567Z,25.6
2023-04-26T17:55:23.213Z,25.8
2023-04-26T18:05:23.451Z,25.7
2023-04-26T18:15:25.516Z,26
2023-04-26T18:25:25.876Z,25.6
2023-04-26T18:35:26.226Z,27.8
2023-04-26T18:45:26.916Z,25.5
2023-04-26T18:55:26.939Z,25.7
2023-04-26T19:05:27.715Z,25.4
2023-04-26T19:15:27.663Z,25.4
2023-04-26T19:25:27.844Z,25.5
2023-04-26T19:35:28.648Z,25.6
2023-04-26T19:45:29.313Z,25.8
2023-04-26T19:55:30.609Z,25.8
2023-04-26T20:05:31.029Z,25.4
2023-04-26T20:15:33.460Z,28.9
2023-04-26T20:25:32.082Z,25.9
2023-04-26T20:35:33.323Z,25.4
2023-04-26T20:45:34.486Z,25.3
2023-04-26T20:55:35.176Z,25.7
2023-04-26T21:05:06.720Z,28.8
2023-04-26T21:15:06.900Z,25.3
2023-04-26T21:25:07.692Z,25.4
2023-04-26T21:35:08.060Z,28.4
2023-04-26T21:45:07.536Z,25.5
2023-04-26T21:55:07.949Z,28.3
2023-04-26T22:05:09.194Z,28.4
2023-04-26T22:15:10.354Z,25.3
2023-04-26T22:25:11.755Z,28
2023-04-26T22:35:16.311Z,25.3
2023-04-26T22:45:14.867Z,25.3
2023-04-26T22:55:15.923Z,25.5
2023-04-26T23:05:16.029Z,25.6
2023-04-26T23:15:15.924Z,25.3
2023-04-26T23:25:15.835Z,25.3
2023-04-26T23:35:15.408Z,25.6
2023-04-26T23:45:15.548Z,25
2023-04-26T23:55:16.024Z,25.2
